createdAt,value
2018-04-15T00:00:51.334Z,23.07
2018-04-15T00:01:51.620Z,23.09
2018-04-15T00:02:51.376Z,23.09
2018-04-15T00:03:51.386Z,23.06
2018-04-15T00:04:51.397Z,23.07
2018-04-15T00:05:51.488Z,23.04
2018-04-15T00:06:51.465Z,23.09
2018-04-15T00:07:51.856Z,23.07
2018-04-15T00:08:51.576Z,23.07
2018-04-15T00:09:51.555Z,23.03
2018-04-15T00:10:51.600Z,23.00
2018-04-15T00:11:51.632Z,23.04
2018-04-15T00:12:51.641Z,23.01
2018-04-15T00:13:52.257Z,23.01
2018-04-15T00:14:51.795Z,23.07
2018-04-15T00:15:51.731Z,23.06
2018-04-15T00:16:51.763Z,23.04
2018-04-15T00:17:51.835Z,22.97
2018-04-15T00:18:51.846Z,23.03
2018-04-15T00:19:52.187Z,23.01
2018-04-15T00:20:51.903Z,23.04
2018-04-15T00:21:51.928Z,23.06
2018-04-15T00:22:52.106Z,23.01
2018-04-15T00:23:52.023Z,23.03
2018-04-15T00:24:53.301Z,23.01
2018-04-15T00:25:52.461Z,23.00
2018-04-15T00:26:52.091Z,23.03
2018-04-15T00:27:52.189Z,23.04
2018-04-15T00:28:52.151Z,23.12
2018-04-15T00:29:52.280Z,23.03
2018-04-15T00:30:52.264Z,23.00
2018-04-15T00:31:52.649Z,23.00
2018-04-15T00:32:52.341Z,23.01
2018-04-15T00:33:52.946Z,23.01
2018-04-15T00:34:52.375Z,23.03
2018-04-15T00:35:52.388Z,22.94
2018-04-15T00:36:52.493Z,23.06
2018-04-15T00:37:52.807Z,23.01
2018-04-15T00:38:52.470Z,23.01
2018-04-15T00:39:52.567Z,23.03
2018-04-15T00:40:52.622Z,23.01
2018-04-15T00:41:52.563Z,22.96
2018-04-15T00:42:52.851Z,22.96
2018-04-15T00:43:52.999Z,23.01
2018-04-15T00:44:53.326Z,23.00
2018-04-15T00:45:52.737Z,22.93
2018-04-15T00:46:52.768Z,22.91
2018-04-15T00:47:52.780Z,23.01
2018-04-15T00:48:52.877Z,22.96
2018-04-15T00:49:53.174Z,22.99
2018-04-15T00:50:52.849Z,23.01
2018-04-15T00:51:52.880Z,22.99
2018-04-15T00:52:53.185Z,22.99
2018-04-15T00:53:52.973Z,22.96
2018-04-15T00:54:53.794Z,22.99
2018-04-15T00:55:53.059Z,23.01
2018-04-15T00:56:53.715Z,23.00
2018-04-15T00:57:53.151Z,23.00
2018-04-15T00:58:53.120Z,23.00
2018-04-15T00:59:54.431Z,22.97
2018-04-15T01:00:53.687Z,23.03
2018-04-15T01:01:53.256Z,22.99
2018-04-15T01:02:53.606Z,23.03
2018-04-15T01:03:53.318Z,23.04
2018-04-15T01:04:53.319Z,22.97
2018-04-15T01:05:53.447Z,22.97
2018-04-15T01:06:53.558Z,22.97
2018-04-15T01:07:53.394Z,23.04
2018-04-15T01:08:54.724Z,22.96
2018-04-15T01:09:53.813Z,23.01
2018-04-15T01:10:54.759Z,23.00
2018-04-15T01:11:53.558Z,22.96
2018-04-15T01:12:53.769Z,23.00
2018-04-15T01:13:53.675Z,22.94
2018-04-15T01:14:53.641Z,22.94
2018-04-15T01:15:53.698Z,22.97
2018-04-15T01:16:54.046Z,22.97
2018-04-15T01:17:53.766Z,22.99
2018-04-15T01:18:53.760Z,22.99
2018-04-15T01:19:54.992Z,22.96
2018-04-15T01:20:53.923Z,22.96
2018-04-15T01:21:53.848Z,22.94
2018-04-15T01:22:53.976Z,23.01
2018-04-15T01:23:54.545Z,22.97
2018-04-15T01:24:53.947Z,23.01
2018-04-15T01:25:54.035Z,22.97
2018-04-15T01:26:54.010Z,23.00
2018-04-15T01:27:54.045Z,22.94
2018-04-15T01:28:55.308Z,22.97
2018-04-15T01:29:54.097Z,23.04
2018-04-15T01:30:55.746Z,23.06
2018-04-15T01:31:54.240Z,22.94
2018-04-15T01:32:54.212Z,22.96
2018-04-15T01:33:54.233Z,22.93
2018-04-15T01:34:54.242Z,22.97
2018-04-15T01:35:54.769Z,22.97
2018-04-15T01:36:54.325Z,22.94
2018-04-15T01:37:55.917Z,22.97
2018-04-15T01:38:54.425Z,22.99
2018-04-15T01:39:54.419Z,23.00
2018-04-15T01:40:54.455Z,22.97
2018-04-15T01:41:54.536Z,22.94
2018-04-15T01:42:54.639Z,22.94
2018-04-15T01:43:54.888Z,22.94
2018-04-15T01:44:54.694Z,22.93
2018-04-15T01:45:54.667Z,22.94
2018-04-15T01:46:54.941Z,23.03
2018-04-15T01:47:54.681Z,22.96
2018-04-15T01:48:54.689Z,22.91
2018-04-15T01:49:55.093Z,22.93
2018-04-15T01:50:54.763Z,22.93
2018-04-15T01:51:56.070Z,22.89
2018-04-15T01:52:54.888Z,22.97
2018-04-15T01:53:54.889Z,22.93
2018-04-15T01:54:54.888Z,22.89
2018-04-15T01:55:55.259Z,22.96
2018-04-15T01:56:55.111Z,22.82
2018-04-15T01:57:55.036Z,22.96
2018-04-15T01:58:55.023Z,22.97
2018-04-15T01:59:55.045Z,22.96
2018-04-15T02:00:55.267Z,22.94
2018-04-15T02:01:55.455Z,22.89
2018-04-15T02:02:56.429Z,22.94
2018-04-15T02:03:55.190Z,22.93
2018-04-15T02:04:55.289Z,22.93
2018-04-15T02:05:55.306Z,22.93
2018-04-15T02:06:55.277Z,22.91
2018-04-15T02:07:55.690Z,22.89
2018-04-15T02:08:55.341Z,22.96
2018-04-15T02:09:55.366Z,22.91
2018-04-15T02:10:55.405Z,23.00
2018-04-15T02:11:55.430Z,22.94
2018-04-15T02:12:55.546Z,22.93
2018-04-15T02:13:56.687Z,22.91
2018-04-15T02:14:56.219Z,22.93
2018-04-15T02:15:55.567Z,22.94
2018-04-15T02:16:55.711Z,22.93
2018-04-15T02:17:55.656Z,22.97
2018-04-15T02:18:56.916Z,22.91
2018-04-15T02:19:55.771Z,22.96
2018-04-15T02:20:56.928Z,22.96
2018-04-15T02:21:56.115Z,22.94
2018-04-15T02:22:55.832Z,22.96
2018-04-15T02:23:55.887Z,22.91
2018-04-15T02:24:56.304Z,22.85
2018-04-15T02:25:55.915Z,22.94
2018-04-15T02:26:56.155Z,22.93
2018-04-15T02:27:55.997Z,22.93
2018-04-15T02:28:56.329Z,22.97
2018-04-15T02:29:56.275Z,22.97
2018-04-15T02:30:56.178Z,22.86
2018-04-15T02:31:56.089Z,22.88
2018-04-15T02:32:56.204Z,22.93
2018-04-15T02:33:56.137Z,22.84
2018-04-15T02:34:56.266Z,22.97
2018-04-15T02:35:56.562Z,22.94
2018-04-15T02:36:56.233Z,22.93
2018-04-15T02:37:56.312Z,22.93
2018-04-15T02:38:56.784Z,22.97
2018-04-15T02:39:56.347Z,22.85
2018-04-15T02:40:56.357Z,22.93
2018-04-15T02:41:56.385Z,22.89
2018-04-15T02:42:56.791Z,22.91
2018-04-15T02:43:56.448Z,22.89
2018-04-15T02:44:56.551Z,22.97
2018-04-15T02:45:56.499Z,22.93
2018-04-15T02:46:56.532Z,22.91
2018-04-15T02:47:56.574Z,22.97
2018-04-15T02:48:56.616Z,22.94
2018-04-15T02:49:56.984Z,22.96
2018-04-15T02:50:56.682Z,22.93
2018-04-15T02:51:56.773Z,22.86
2018-04-15T02:52:56.739Z,22.85
2018-04-15T02:53:56.822Z,22.97
2018-04-15T02:54:56.846Z,22.86
2018-04-15T02:55:56.873Z,22.86
2018-04-15T02:56:57.210Z,22.94
2018-04-15T02:57:56.952Z,22.86
2018-04-15T02:58:57.150Z,22.86
2018-04-15T02:59:56.961Z,22.85
2018-04-15T03:00:56.995Z,22.86
2018-04-15T03:01:57.045Z,22.82
2018-04-15T03:02:57.124Z,22.91
2018-04-15T03:03:57.433Z,22.85
2018-04-15T03:04:57.125Z,22.86
2018-04-15T03:05:57.183Z,22.93
2018-04-15T03:06:57.242Z,22.86
2018-04-15T03:07:57.242Z,22.99
2018-04-15T03:08:57.285Z,22.78
2018-04-15T03:09:57.457Z,22.89
2018-04-15T03:10:57.662Z,22.78
2018-04-15T03:11:57.343Z,22.82
2018-04-15T03:12:57.414Z,22.82
2018-04-15T03:13:57.406Z,22.89
2018-04-15T03:14:57.437Z,22.88
2018-04-15T03:15:57.513Z,22.85
2018-04-15T03:16:57.580Z,22.88
2018-04-15T03:17:57.969Z,22.85
2018-04-15T03:18:57.659Z,22.96
2018-04-15T03:19:57.624Z,22.91
2018-04-15T03:20:57.628Z,22.94
2018-04-15T03:21:57.663Z,22.82
2018-04-15T03:22:57.723Z,22.84
2018-04-15T03:23:58.062Z,22.82
2018-04-15T03:24:58.002Z,22.85
2018-04-15T03:25:57.782Z,22.85
2018-04-15T03:26:57.803Z,22.85
2018-04-15T03:27:57.859Z,22.86
2018-04-15T03:28:59.113Z,22.84
2018-04-15T03:29:58.336Z,22.85
2018-04-15T03:30:57.949Z,22.85
2018-04-15T03:31:58.018Z,22.85
2018-04-15T03:32:58.005Z,22.93
2018-04-15T03:33:58.025Z,22.97
2018-04-15T03:34:58.073Z,22.82
2018-04-15T03:35:58.089Z,22.84
2018-04-15T03:36:58.424Z,22.85
2018-04-15T03:37:58.459Z,22.91
2018-04-15T03:38:58.247Z,22.82
2018-04-15T03:39:58.277Z,22.72
2018-04-15T03:40:58.399Z,22.79
2018-04-15T03:41:58.363Z,22.63
2018-04-15T03:42:58.664Z,22.74
2018-04-15T03:43:58.468Z,22.67
2018-04-15T03:44:58.427Z,22.72
2018-04-15T03:45:58.498Z,22.72
2018-04-15T03:46:58.438Z,22.61
2018-04-15T03:47:58.466Z,22.61
2018-04-15T03:48:58.858Z,22.59
2018-04-15T03:49:58.582Z,22.57
2018-04-15T03:50:58.607Z,22.63
2018-04-15T03:51:58.637Z,22.52
2018-04-15T03:52:58.641Z,22.52
2018-04-15T03:53:58.693Z,22.59
2018-04-15T03:54:59.065Z,22.59
2018-04-15T03:55:58.726Z,22.57
2018-04-15T03:56:58.761Z,22.48
2018-04-15T03:57:58.842Z,22.49
2018-04-15T03:58:58.815Z,22.51
2018-04-15T03:59:58.932Z,22.48
2018-04-15T04:00:59.244Z,22.49
2018-04-15T04:01:58.924Z,22.41
2018-04-15T04:02:58.947Z,22.46
2018-04-15T04:03:58.981Z,22.49
2018-04-15T04:04:59.095Z,22.45
2018-04-15T04:05:59.051Z,22.49
2018-04-15T04:06:59.426Z,22.45
2018-04-15T04:07:59.118Z,22.39
2018-04-15T04:08:59.134Z,22.36
2018-04-15T04:09:59.222Z,22.38
2018-04-15T04:10:59.349Z,22.38
2018-04-15T04:11:59.227Z,22.36
2018-04-15T04:12:59.817Z,22.42
2018-04-15T04:13:59.312Z,22.38
2018-04-15T04:14:59.443Z,22.44
2018-04-15T04:15:59.364Z,22.44
2018-04-15T04:16:59.424Z,22.39
2018-04-15T04:17:59.492Z,22.36
2018-04-15T04:18:59.825Z,22.35
2018-04-15T04:19:59.488Z,22.39
2018-04-15T04:20:59.567Z,22.30
2018-04-15T04:21:59.607Z,22.35
2018-04-15T04:22:59.614Z,22.23
2018-04-15T04:23:59.618Z,22.31
2018-04-15T04:25:00.051Z,22.23
2018-04-15T04:25:59.743Z,22.30
2018-04-15T04:26:59.702Z,22.27
2018-04-15T04:27:59.750Z,22.31
2018-04-15T04:28:59.821Z,22.29
2018-04-15T04:29:59.834Z,22.20
2018-04-15T04:31:00.214Z,22.24
2018-04-15T04:31:59.933Z,22.31
2018-04-15T04:32:59.901Z,22.26
2018-04-15T04:34:00.011Z,22.33
2018-04-15T04:35:00.005Z,22.17
2018-04-15T04:36:00.040Z,22.17
2018-04-15T04:37:00.033Z,22.11
2018-04-15T04:38:00.927Z,22.15
2018-04-15T04:39:00.096Z,22.08
2018-04-15T04:40:00.141Z,22.12
2018-04-15T04:41:00.155Z,22.12
2018-04-15T04:42:00.248Z,22.12
2018-04-15T04:43:00.940Z,22.09
2018-04-15T04:44:00.566Z,22.11
2018-04-15T04:45:00.299Z,22.14
2018-04-15T04:46:00.322Z,22.12
2018-04-15T04:47:00.426Z,22.11
2018-04-15T04:48:00.386Z,22.15
2018-04-15T04:49:00.481Z,22.15
2018-04-15T04:50:00.604Z,22.12
2018-04-15T04:51:00.816Z,22.20
2018-04-15T04:52:00.508Z,22.04
2018-04-15T04:53:00.621Z,22.14
2018-04-15T04:54:00.564Z,22.15
2018-04-15T04:55:00.664Z,22.15
2018-04-15T04:56:01.095Z,22.20
2018-04-15T04:57:00.640Z,22.14
2018-04-15T04:58:00.992Z,22.15
2018-04-15T04:59:00.764Z,22.11
2018-04-15T05:00:00.796Z,22.14
2018-04-15T05:01:00.916Z,22.12
2018-04-15T05:02:00.819Z,22.14
2018-04-15T05:03:00.832Z,22.15
2018-04-15T05:04:01.187Z,22.08
2018-04-15T05:05:00.933Z,22.14
2018-04-15T05:06:00.981Z,22.11
2018-04-15T05:07:01.037Z,22.15
2018-04-15T05:08:01.049Z,22.02
2018-04-15T05:09:01.046Z,22.14
2018-04-15T05:10:01.123Z,22.08
2018-04-15T05:11:01.383Z,22.09
2018-04-15T05:12:01.174Z,22.12
2018-04-15T05:13:01.179Z,22.11
2018-04-15T05:14:01.193Z,22.09
2018-04-15T05:15:01.212Z,22.12
2018-04-15T05:16:02.092Z,22.09
2018-04-15T05:17:01.669Z,22.11
2018-04-15T05:18:01.333Z,22.08
2018-04-15T05:19:01.345Z,22.11
2018-04-15T05:20:01.391Z,22.11
2018-04-15T05:21:01.532Z,22.14
2018-04-15T05:22:01.539Z,22.06
2018-04-15T05:23:01.847Z,22.09
2018-04-15T05:24:01.564Z,22.09
2018-04-15T05:25:01.599Z,22.19
2018-04-15T05:26:02.154Z,22.11
2018-04-15T05:27:01.637Z,22.09
2018-04-15T05:28:01.710Z,22.09
2018-04-15T05:29:02.530Z,22.05
2018-04-15T05:30:01.694Z,22.14
2018-04-15T05:31:01.856Z,22.09
2018-04-15T05:32:01.748Z,22.09
2018-04-15T05:33:01.853Z,22.06
2018-04-15T05:34:01.816Z,22.12
2018-04-15T05:35:02.232Z,22.06
2018-04-15T05:36:01.865Z,22.11
2018-04-15T05:37:01.949Z,22.09
2018-04-15T05:38:01.929Z,22.06
2018-04-15T05:39:02.016Z,22.12
2018-04-15T05:40:02.013Z,22.08
2018-04-15T05:41:02.402Z,22.12
2018-04-15T05:42:02.076Z,22.08
2018-04-15T05:43:02.104Z,22.17
2018-04-15T05:44:02.168Z,22.14
2018-04-15T05:45:02.169Z,22.17
2018-04-15T05:46:02.227Z,22.11
2018-04-15T05:47:02.510Z,22.12
2018-04-15T05:48:02.289Z,22.14
2018-04-15T05:49:02.274Z,22.09
2018-04-15T05:50:02.318Z,22.15
2018-04-15T05:51:02.361Z,22.05
2018-04-15T05:52:02.452Z,22.06
2018-04-15T05:53:02.434Z,22.14
2018-04-15T05:54:02.985Z,22.09
2018-04-15T05:55:02.456Z,22.17
2018-04-15T05:56:02.523Z,22.09
2018-04-15T05:57:02.668Z,22.12
2018-04-15T05:58:02.568Z,22.09
2018-04-15T05:59:02.603Z,22.08
2018-04-15T06:00:02.980Z,22.19
2018-04-15T06:01:02.664Z,22.15
2018-04-15T06:02:02.743Z,22.09
2018-04-15T06:03:02.925Z,22.14
2018-04-15T06:04:02.763Z,22.06
2018-04-15T06:05:02.804Z,22.06
2018-04-15T06:06:03.146Z,22.11
2018-04-15T06:07:02.854Z,22.06
2018-04-15T06:08:02.875Z,22.17
2018-04-15T06:09:02.933Z,22.09
2018-04-15T06:10:02.959Z,22.12
2018-04-15T06:11:03.145Z,22.15
2018-04-15T06:12:03.381Z,22.09
2018-04-15T06:13:03.033Z,22.06
2018-04-15T06:14:03.121Z,22.11
2018-04-15T06:15:03.100Z,22.09
2018-04-15T06:16:03.176Z,22.12
2018-04-15T06:17:03.239Z,22.05
2018-04-15T06:18:03.557Z,22.06
2018-04-15T06:19:03.415Z,22.08
2018-04-15T06:20:03.280Z,22.12
2018-04-15T06:21:03.395Z,22.02
2018-04-15T06:22:03.343Z,22.09
2018-04-15T06:23:03.336Z,22.09
2018-04-15T06:24:03.745Z,22.17
2018-04-15T06:25:03.442Z,22.09
2018-04-15T06:26:03.470Z,22.09
2018-04-15T06:27:03.485Z,22.17
2018-04-15T06:28:03.525Z,22.09
2018-04-15T06:29:03.546Z,22.05
2018-04-15T06:30:03.946Z,22.09
2018-04-15T06:31:03.647Z,22.09
2018-04-15T06:32:03.637Z,22.11
2018-04-15T06:33:03.749Z,22.09
2018-04-15T06:34:03.681Z,22.05
2018-04-15T06:35:03.840Z,22.11
2018-04-15T06:36:04.096Z,22.21
2018-04-15T06:37:03.832Z,22.19
2018-04-15T06:38:03.903Z,22.19
2018-04-15T06:39:03.892Z,22.20
2018-04-15T06:40:03.893Z,22.23
2018-04-15T06:41:03.975Z,22.24
2018-04-15T06:42:03.951Z,22.24
2018-04-15T06:43:04.355Z,22.26
2018-04-15T06:44:04.031Z,22.26
2018-04-15T06:45:04.046Z,22.35
2018-04-15T06:46:04.081Z,22.30
2018-04-15T06:47:04.180Z,22.23
2018-04-15T06:48:04.183Z,22.31
2018-04-15T06:49:04.569Z,22.31
2018-04-15T06:50:04.197Z,22.24
2018-04-15T06:51:04.285Z,22.24
2018-04-15T06:52:04.365Z,22.44
2018-04-15T06:53:04.393Z,22.33
2018-04-15T06:54:04.317Z,22.39
2018-04-15T06:55:04.660Z,22.45
2018-04-15T06:56:04.378Z,22.42
2018-04-15T06:57:04.408Z,22.42
2018-04-15T06:58:04.440Z,22.44
2018-04-15T06:59:04.721Z,22.33
2018-04-15T07:00:04.504Z,22.44
2018-04-15T07:01:04.892Z,22.35
2018-04-15T07:02:04.590Z,22.39
2018-04-15T07:03:04.681Z,22.39
2018-04-15T07:04:04.645Z,22.44
2018-04-15T07:05:04.678Z,22.44
2018-04-15T07:06:04.893Z,22.39
2018-04-15T07:07:04.759Z,22.36
2018-04-15T07:08:05.109Z,22.36
2018-04-15T07:09:04.785Z,22.36
2018-04-15T07:10:04.834Z,22.44
2018-04-15T07:11:04.863Z,22.41
2018-04-15T07:12:04.945Z,22.42
2018-04-15T07:13:04.957Z,22.36
2018-04-15T07:14:04.951Z,22.36
2018-04-15T07:15:05.395Z,22.39
2018-04-15T07:16:05.097Z,22.44
2018-04-15T07:17:05.259Z,22.44
2018-04-15T07:18:05.092Z,22.42
2018-04-15T07:19:05.406Z,22.39
2018-04-15T07:20:05.197Z,22.41
2018-04-15T07:21:05.526Z,22.36
2018-04-15T07:22:05.239Z,22.35
2018-04-15T07:23:05.242Z,22.44
2018-04-15T07:24:05.283Z,22.39
2018-04-15T07:25:05.302Z,22.45
2018-04-15T07:26:05.377Z,22.48
2018-04-15T07:27:05.714Z,22.44
2018-04-15T07:28:05.442Z,22.42
2018-04-15T07:29:05.423Z,22.46
2018-04-15T07:30:05.468Z,22.41
2018-04-15T07:31:05.601Z,22.51
2018-04-15T07:32:05.590Z,22.48
2018-04-15T07:33:05.900Z,22.44
2018-04-15T07:34:05.588Z,22.48
2018-04-15T07:35:05.613Z,22.44
2018-04-15T07:36:05.712Z,22.42
2018-04-15T07:37:05.732Z,22.46
2018-04-15T07:38:05.728Z,22.51
2018-04-15T07:39:06.123Z,22.46
2018-04-15T07:40:05.812Z,22.51
2018-04-15T07:41:05.862Z,22.49
2018-04-15T07:42:05.847Z,22.46
2018-04-15T07:43:05.899Z,22.49
2018-04-15T07:44:05.963Z,22.49
2018-04-15T07:45:05.953Z,22.49
2018-04-15T07:46:06.371Z,22.59
2018-04-15T07:47:06.058Z,22.63
2018-04-15T07:48:06.081Z,22.57
2018-04-15T07:49:06.076Z,22.56
2018-04-15T07:50:06.153Z,22.60
2018-04-15T07:51:06.122Z,22.56
2018-04-15T07:52:06.512Z,22.59
2018-04-15T07:53:06.220Z,22.59
2018-04-15T07:54:06.273Z,22.59
2018-04-15T07:55:06.337Z,22.59
2018-04-15T07:56:06.285Z,22.66
2018-04-15T07:57:06.359Z,22.64
2018-04-15T07:58:07.924Z,22.72
2018-04-15T07:59:06.382Z,22.63
2018-04-15T08:00:06.425Z,22.69
2018-04-15T08:01:06.532Z,22.69
2018-04-15T08:02:06.488Z,22.70
2018-04-15T08:03:06.539Z,22.64
2018-04-15T08:04:06.886Z,22.69
2018-04-15T08:05:06.615Z,22.72
2018-04-15T08:06:06.620Z,22.72
2018-04-15T08:07:06.649Z,22.70
2018-04-15T08:08:06.701Z,22.61
2018-04-15T08:09:06.753Z,22.69
2018-04-15T08:10:07.260Z,22.82
2018-04-15T08:11:06.762Z,22.63
2018-04-15T08:12:06.998Z,22.72
2018-04-15T08:13:06.866Z,22.69
2018-04-15T08:14:06.909Z,22.76
2018-04-15T08:15:06.885Z,22.75
2018-04-15T08:16:07.285Z,22.78
2018-04-15T08:17:07.069Z,22.85
2018-04-15T08:18:07.002Z,22.76
2018-04-15T08:19:07.035Z,22.75
2018-04-15T08:20:07.116Z,22.74
2018-04-15T08:21:07.120Z,22.85
2018-04-15T08:22:07.509Z,22.70
2018-04-15T08:23:07.190Z,22.79
2018-04-15T08:24:07.247Z,22.74
2018-04-15T08:25:07.396Z,22.74
2018-04-15T08:26:07.398Z,22.76
2018-04-15T08:27:07.331Z,22.86
2018-04-15T08:28:07.691Z,22.79
2018-04-15T08:29:07.451Z,22.78
2018-04-15T08:30:07.446Z,22.91
2018-04-15T08:31:07.419Z,22.86
2018-04-15T08:32:07.493Z,22.89
2018-04-15T08:33:07.486Z,22.79
2018-04-15T08:34:07.892Z,22.85
2018-04-15T08:35:07.537Z,22.97
2018-04-15T08:36:08.820Z,22.94
2018-04-15T08:37:07.761Z,22.97
2018-04-15T08:38:07.623Z,22.94
2018-04-15T08:39:07.689Z,22.94
2018-04-15T08:40:08.093Z,23.03
2018-04-15T08:41:07.755Z,22.96
2018-04-15T08:42:07.789Z,22.96
2018-04-15T08:43:07.830Z,23.01
2018-04-15T08:44:07.864Z,23.01
2018-04-15T08:45:07.871Z,23.01
2018-04-15T08:46:08.248Z,23.01
2018-04-15T08:47:08.119Z,23.04
2018-04-15T08:48:07.978Z,23.11
2018-04-15T08:49:08.036Z,23.07
2018-04-15T08:50:08.031Z,23.11
2018-04-15T08:51:08.117Z,23.14
2018-04-15T08:52:08.442Z,23.07
2018-04-15T08:53:08.114Z,23.16
2018-04-15T08:54:08.161Z,23.19
2018-04-15T08:55:08.264Z,23.18
2018-04-15T08:56:08.224Z,23.14
2018-04-15T08:57:08.309Z,23.22
2018-04-15T08:58:08.632Z,23.21
2018-04-15T08:59:08.314Z,23.23
2018-04-15T09:00:08.333Z,23.25
2018-04-15T09:01:08.420Z,23.18
2018-04-15T09:02:08.391Z,23.21
2018-04-15T09:03:08.434Z,23.18
2018-04-15T09:04:08.830Z,23.21
2018-04-15T09:05:08.691Z,23.21
2018-04-15T09:06:08.680Z,23.25
2018-04-15T09:07:08.624Z,23.32
2018-04-15T09:08:08.634Z,23.29
2018-04-15T09:09:08.784Z,23.31
2018-04-15T09:10:09.138Z,23.22
2018-04-15T09:11:08.834Z,23.26
2018-04-15T09:12:08.881Z,23.37
2018-04-15T09:13:08.793Z,23.38
2018-04-15T09:14:08.818Z,23.34
2018-04-15T09:15:08.919Z,23.38
2018-04-15T09:16:09.243Z,23.31
2018-04-15T09:17:08.973Z,23.31
2018-04-15T09:18:08.985Z,23.31
2018-04-15T09:19:09.019Z,23.32
2018-04-15T09:20:09.027Z,23.39
2018-04-15T09:21:10.464Z,23.39
2018-04-15T09:22:09.415Z,23.42
2018-04-15T09:23:09.076Z,23.41
2018-04-15T09:24:09.131Z,23.42
2018-04-15T09:25:09.211Z,23.47
2018-04-15T09:26:09.227Z,23.44
2018-04-15T09:27:09.505Z,23.52
2018-04-15T09:28:09.617Z,23.57
2018-04-15T09:29:09.312Z,23.45
2018-04-15T09:30:09.340Z,23.57
2018-04-15T09:31:09.354Z,23.45
2018-04-15T09:32:09.460Z,23.59
2018-04-15T09:33:09.476Z,23.53
2018-04-15T09:34:09.817Z,23.54
2018-04-15T09:35:09.700Z,23.63
2018-04-15T09:36:09.533Z,23.67
2018-04-15T09:37:09.587Z,23.68
2018-04-15T09:38:09.678Z,23.67
2018-04-15T09:39:09.634Z,23.63
2018-04-15T09:40:10.032Z,23.59
2018-04-15T09:41:09.740Z,23.62
2018-04-15T09:42:09.706Z,23.64
2018-04-15T09:43:09.773Z,23.60
2018-04-15T09:44:10.004Z,23.64
2018-04-15T09:45:09.822Z,23.67
2018-04-15T09:46:10.258Z,23.69
2018-04-15T09:47:09.873Z,23.64
2018-04-15T09:48:11.199Z,23.69
2018-04-15T09:49:10.238Z,23.67
2018-04-15T09:50:10.010Z,23.69
2018-04-15T09:51:10.059Z,23.67
2018-04-15T09:52:10.404Z,23.64
2018-04-15T09:53:10.311Z,23.68
2018-04-15T09:54:10.135Z,23.72
2018-04-15T09:55:10.141Z,23.69
2018-04-15T09:56:10.239Z,23.67
2018-04-15T09:57:10.247Z,23.67
2018-04-15T09:58:10.612Z,23.71
2018-04-15T09:59:10.283Z,23.71
2018-04-15T10:00:10.307Z,23.74
2018-04-15T10:01:10.333Z,23.77
2018-04-15T10:02:10.375Z,23.72
2018-04-15T10:03:10.469Z,23.77
2018-04-15T10:04:10.814Z,23.77
2018-04-15T10:05:10.472Z,23.77
2018-04-15T10:06:10.537Z,23.75
2018-04-15T10:07:10.535Z,23.89
2018-04-15T10:08:10.575Z,23.79
2018-04-15T10:09:10.597Z,23.74
2018-04-15T10:10:11.226Z,23.75
2018-04-15T10:11:10.724Z,23.92
2018-04-15T10:12:10.746Z,23.90
2018-04-15T10:13:10.800Z,23.82
2018-04-15T10:14:11.983Z,23.86
2018-04-15T10:15:10.839Z,23.89
2018-04-15T10:16:11.317Z,23.89
2018-04-15T10:17:10.898Z,23.89
2018-04-15T10:18:12.137Z,23.86
2018-04-15T10:19:10.972Z,23.89
2018-04-15T10:20:11.031Z,23.93
2018-04-15T10:21:10.995Z,23.93
2018-04-15T10:22:11.406Z,23.86
2018-04-15T10:23:11.058Z,23.93
2018-04-15T10:24:11.271Z,23.97
2018-04-15T10:25:11.138Z,23.78
2018-04-15T10:26:11.179Z,23.92
2018-04-15T10:27:11.248Z,23.92
2018-04-15T10:28:11.577Z,23.93
2018-04-15T10:29:11.287Z,23.97
2018-04-15T10:30:11.360Z,23.99
2018-04-15T10:31:11.375Z,24.00
2018-04-15T10:32:11.706Z,23.92
2018-04-15T10:33:11.407Z,23.97
2018-04-15T10:34:13.008Z,23.99
2018-04-15T10:35:11.495Z,23.96
2018-04-15T10:36:11.682Z,24.00
2018-04-15T10:37:11.728Z,23.99
2018-04-15T10:38:11.601Z,23.96
2018-04-15T10:39:11.592Z,24.02
2018-04-15T10:40:12.053Z,24.02
2018-04-15T10:41:11.655Z,24.00
2018-04-15T10:42:11.749Z,24.00
2018-04-15T10:43:11.795Z,24.04
2018-04-15T10:44:12.298Z,24.04
2018-04-15T10:45:11.803Z,24.04
2018-04-15T10:46:12.123Z,24.06
2018-04-15T10:47:11.878Z,24.05
2018-04-15T10:48:11.903Z,24.02
2018-04-15T10:49:11.941Z,24.11
2018-04-15T10:50:12.139Z,24.09
2018-04-15T10:51:12.001Z,24.05
2018-04-15T10:52:12.737Z,24.04
2018-04-15T10:53:12.262Z,24.11
2018-04-15T10:54:12.445Z,24.08
2018-04-15T10:55:12.161Z,24.04
2018-04-15T10:56:12.196Z,24.09
2018-04-15T10:57:12.269Z,24.02
2018-04-15T10:58:12.626Z,24.14
2018-04-15T10:59:12.388Z,24.09
2018-04-15T11:00:12.329Z,24.09
2018-04-15T11:01:12.568Z,24.15
2018-04-15T11:02:12.376Z,24.15
2018-04-15T11:03:12.408Z,24.15
2018-04-15T11:04:12.804Z,24.09
2018-04-15T11:05:12.727Z,24.12
2018-04-15T11:06:12.572Z,24.16
2018-04-15T11:07:12.596Z,24.18
2018-04-15T11:08:12.624Z,24.16
2018-04-15T11:09:12.626Z,24.11
2018-04-15T11:10:13.015Z,24.18
2018-04-15T11:11:12.673Z,24.19
2018-04-15T11:12:12.714Z,24.16
2018-04-15T11:13:12.828Z,24.18
2018-04-15T11:14:12.905Z,24.19
2018-04-15T11:15:12.870Z,24.21
2018-04-15T11:16:13.207Z,24.29
2018-04-15T11:17:12.943Z,24.26
2018-04-15T11:18:13.829Z,24.26
2018-04-15T11:19:12.976Z,24.27
2018-04-15T11:20:12.973Z,24.30
2018-04-15T11:21:13.035Z,24.30
2018-04-15T11:22:13.356Z,24.26
2018-04-15T11:23:13.127Z,24.29
2018-04-15T11:24:13.135Z,24.30
2018-04-15T11:25:13.362Z,24.24
2018-04-15T11:26:13.287Z,24.33
2018-04-15T11:27:13.283Z,24.31
2018-04-15T11:28:13.604Z,24.34
2018-04-15T11:29:13.331Z,24.34
2018-04-15T11:30:13.323Z,24.37
2018-04-15T11:31:13.375Z,24.44
2018-04-15T11:32:13.478Z,24.41
2018-04-15T11:33:13.477Z,24.37
2018-04-15T11:34:13.836Z,24.41
2018-04-15T11:35:13.503Z,24.45
2018-04-15T11:36:13.529Z,24.41
2018-04-15T11:37:13.836Z,24.42
2018-04-15T11:38:13.586Z,24.44
2018-04-15T11:39:13.656Z,24.42
2018-04-15T11:40:14.044Z,24.49
2018-04-15T11:41:13.784Z,24.45
2018-04-15T11:42:13.780Z,24.53
2018-04-15T11:43:15.076Z,24.46
2018-04-15T11:44:13.808Z,24.49
2018-04-15T11:45:14.046Z,24.51
2018-04-15T11:46:14.222Z,24.45
2018-04-15T11:47:13.993Z,24.49
2018-04-15T11:48:15.147Z,24.55
2018-04-15T11:49:13.991Z,24.41
2018-04-15T11:50:15.377Z,24.46
2018-04-15T11:51:14.088Z,24.45
2018-04-15T11:52:14.501Z,24.49
2018-04-15T11:53:14.100Z,24.44
2018-04-15T11:54:14.129Z,24.45
2018-04-15T11:55:14.232Z,24.61
2018-04-15T11:56:14.238Z,24.60
2018-04-15T11:57:14.505Z,24.56
2018-04-15T11:58:14.605Z,24.60
2018-04-15T11:59:14.504Z,24.55
2018-04-15T12:00:14.349Z,24.59
2018-04-15T12:01:14.404Z,24.59
2018-04-15T12:02:14.531Z,24.63
2018-04-15T12:03:14.507Z,24.60
2018-04-15T12:04:14.849Z,24.64
2018-04-15T12:05:14.539Z,24.63
2018-04-15T12:06:14.562Z,24.66
2018-04-15T12:07:14.643Z,24.60
2018-04-15T12:08:14.687Z,24.64
2018-04-15T12:09:15.486Z,24.61
2018-04-15T12:10:15.091Z,24.63
2018-04-15T12:11:14.782Z,24.67
2018-04-15T12:12:14.742Z,24.63
2018-04-15T12:13:14.785Z,24.56
2018-04-15T12:14:16.031Z,24.61
2018-04-15T12:15:14.846Z,24.64
2018-04-15T12:16:15.250Z,24.61
2018-04-15T12:17:14.975Z,24.60
2018-04-15T12:18:14.944Z,24.61
2018-04-15T12:19:15.760Z,24.63
2018-04-15T12:20:15.081Z,24.59
2018-04-15T12:21:16.356Z,24.66
2018-04-15T12:22:15.472Z,24.59
2018-04-15T12:23:15.127Z,24.61
2018-04-15T12:24:15.159Z,24.59
2018-04-15T12:25:15.201Z,24.63
2018-04-15T12:26:15.309Z,24.61
2018-04-15T12:27:15.365Z,24.64
2018-04-15T12:28:15.877Z,24.60
2018-04-15T12:29:15.340Z,24.63
2018-04-15T12:30:15.415Z,24.66
2018-04-15T12:31:15.566Z,24.60
2018-04-15T12:32:15.434Z,24.63
2018-04-15T12:33:16.093Z,24.63
2018-04-15T12:34:15.809Z,24.59
2018-04-15T12:35:15.598Z,24.55
2018-04-15T12:36:15.879Z,24.61
2018-04-15T12:37:16.818Z,24.68
2018-04-15T12:38:15.655Z,24.67
2018-04-15T12:39:15.753Z,24.79
2018-04-15T12:40:16.123Z,24.75
2018-04-15T12:41:15.855Z,24.75
2018-04-15T12:42:15.792Z,24.79
2018-04-15T12:43:15.837Z,24.79
2018-04-15T12:44:15.906Z,24.70
2018-04-15T12:45:16.169Z,24.74
2018-04-15T12:46:16.276Z,24.77
2018-04-15T12:47:16.028Z,24.74
2018-04-15T12:48:16.013Z,24.75
2018-04-15T12:49:15.996Z,24.75
2018-04-15T12:50:16.042Z,24.83
2018-04-15T12:51:16.094Z,24.75
2018-04-15T12:52:16.657Z,24.74
2018-04-15T12:53:16.304Z,24.83